createdAt,value
2019-02-11T00:01:32.981Z,2.83
2019-02-11T00:04:00.222Z,3.10
2019-02-11T00:06:27.423Z,3.10
2019-02-11T00:08:54.676Z,3.00
2019-02-11T00:11:21.882Z,2.47
2019-02-11T00:13:49.122Z,3.07
2019-02-11T00:16:16.385Z,2.70
2019-02-11T00:18:43.617Z,3.77
2019-02-11T00:21:10.813Z,2.50
2019-02-11T00:23:38.069Z,2.83
2019-02-11T00:26:05.276Z,2.53
2019-02-11T00:28:32.492Z,2.50
2019-02-11T00:30:59.726Z,2.50
2019-02-11T00:33:26.987Z,2.30
2019-02-11T00:35:54.195Z,2.67
2019-02-11T00:38:21.478Z,2.60
2019-02-11T00:40:48.723Z,2.83
2019-02-11T00:43:19.184Z,2.90
2019-02-11T00:45:45.197Z,2.90
2019-02-11T00:48:12.427Z,3.03
2019-02-11T00:50:39.625Z,2.80
2019-02-11T00:53:07.256Z,2.43
2019-02-11T00:55:34.575Z,2.90
2019-02-11T00:58:01.843Z,3.17
2019-02-11T01:00:29.148Z,2.97
2019-02-11T01:02:56.373Z,2.80
2019-02-11T01:05:23.644Z,2.70
2019-02-11T01:07:50.873Z,3.00
2019-02-11T01:10:18.080Z,2.30
2019-02-11T01:12:45.336Z,3.10
2019-02-11T01:15:12.752Z,2.60
2019-02-11T01:17:39.992Z,2.57
2019-02-11T01:20:09.267Z,2.40
2019-02-11T01:22:36.477Z,2.80
2019-02-11T01:25:04.300Z,3.30
2019-02-11T01:27:31.521Z,3.13
2019-02-11T01:29:58.735Z,2.33
2019-02-11T01:32:25.971Z,2.13
2019-02-11T01:34:53.227Z,2.37
2019-02-11T01:37:20.437Z,1.70
2019-02-11T01:39:47.691Z,2.67
2019-02-11T01:42:14.968Z,2.60
2019-02-11T01:44:42.198Z,2.17
2019-02-11T01:47:09.447Z,2.47
2019-02-11T01:49:36.689Z,2.90
2019-02-11T01:52:03.917Z,3.17
2019-02-11T01:54:31.109Z,2.83
2019-02-11T01:56:58.454Z,2.97
2019-02-11T01:59:25.669Z,3.03
2019-02-11T02:01:52.891Z,2.70
2019-02-11T02:04:20.129Z,2.60
2019-02-11T02:06:47.360Z,3.00
2019-02-11T02:09:14.700Z,2.20
2019-02-11T02:11:41.904Z,2.90
2019-02-11T02:14:09.159Z,2.70
2019-02-11T02:16:36.362Z,3.80
2019-02-11T02:19:03.679Z,3.20
2019-02-11T02:21:30.901Z,3.37
2019-02-11T02:23:58.117Z,3.10
2019-02-11T02:26:25.328Z,3.10
2019-02-11T02:28:52.600Z,3.07
2019-02-11T02:31:19.803Z,2.50
2019-02-11T02:33:47.014Z,2.70
2019-02-11T02:36:14.260Z,2.87
2019-02-11T02:38:41.504Z,3.27
2019-02-11T02:41:08.725Z,3.40
2019-02-11T02:43:35.954Z,3.10
2019-02-11T02:46:03.187Z,2.80
2019-02-11T02:48:30.402Z,3.03
2019-02-11T02:50:57.692Z,3.17
2019-02-11T02:53:24.908Z,3.10
2019-02-11T02:55:52.105Z,3.33
2019-02-11T02:58:19.348Z,3.13
2019-02-11T03:00:46.555Z,3.03
2019-02-11T03:03:13.800Z,2.70
2019-02-11T03:05:41.037Z,2.70
2019-02-11T03:08:08.243Z,2.73
2019-02-11T03:10:35.482Z,2.77
2019-02-11T03:13:02.696Z,3.27
2019-02-11T03:15:29.914Z,2.70
2019-02-11T03:17:57.181Z,2.63
2019-02-11T03:20:24.387Z,3.10
2019-02-11T03:22:51.615Z,2.93
2019-02-11T03:25:18.971Z,3.53
2019-02-11T03:27:46.177Z,2.87
2019-02-11T03:30:13.396Z,2.33
2019-02-11T03:32:40.883Z,2.80
2019-02-11T03:35:08.218Z,2.73
2019-02-11T03:37:35.484Z,3.20
2019-02-11T03:40:02.850Z,2.87
2019-02-11T03:42:30.066Z,2.50
2019-02-11T03:44:57.365Z,2.37
2019-02-11T03:47:24.568Z,2.83
2019-02-11T03:49:51.790Z,2.70
2019-02-11T03:52:19.029Z,3.33
2019-02-11T03:54:46.350Z,2.47
2019-02-11T03:57:13.600Z,3.07
2019-02-11T03:59:40.856Z,2.43
2019-02-11T04:02:08.087Z,2.50
2019-02-11T04:04:35.347Z,1.80
2019-02-11T04:07:02.579Z,2.10
2019-02-11T04:09:29.801Z,2.50
2019-02-11T04:11:57.074Z,2.53
2019-02-11T04:14:25.242Z,2.50
2019-02-11T04:16:52.648Z,2.90
2019-02-11T04:19:19.854Z,3.40
2019-02-11T04:21:56.248Z,2.80
2019-02-11T04:24:23.497Z,3.07
2019-02-11T04:26:50.727Z,2.50
2019-02-11T04:29:18.063Z,2.77
2019-02-11T04:31:45.275Z,2.70
2019-02-11T04:34:12.496Z,2.73
2019-02-11T04:36:39.751Z,2.70
2019-02-11T04:39:07.032Z,2.90
2019-02-11T04:41:34.266Z,2.90
2019-02-11T04:44:01.547Z,2.80
2019-02-11T04:46:28.764Z,2.33
2019-02-11T04:48:56.021Z,3.47
2019-02-11T04:51:23.227Z,3.27
2019-02-11T04:53:50.458Z,3.57
2019-02-11T04:56:17.703Z,2.83
2019-02-11T04:58:44.917Z,3.47
2019-02-11T05:01:12.177Z,2.93
2019-02-11T05:03:39.414Z,3.67
2019-02-11T05:06:06.636Z,3.10
2019-02-11T05:08:33.908Z,2.90
2019-02-11T05:11:01.121Z,3.20
2019-02-11T05:13:28.337Z,3.00
2019-02-11T05:15:55.606Z,3.20
2019-02-11T05:18:22.819Z,3.83
2019-02-11T05:20:50.062Z,2.90
2019-02-11T05:23:17.317Z,3.20
2019-02-11T05:25:44.517Z,2.93
2019-02-11T05:28:11.745Z,2.87
2019-02-11T05:30:38.990Z,2.80
2019-02-11T05:33:06.221Z,2.40
2019-02-11T05:35:33.440Z,2.40
2019-02-11T05:38:00.676Z,2.57
2019-02-11T05:40:27.946Z,2.90
2019-02-11T05:42:55.143Z,3.33
2019-02-11T05:45:22.418Z,2.97
2019-02-11T05:47:49.654Z,3.53
2019-02-11T05:50:16.872Z,2.43
2019-02-11T05:52:44.163Z,3.10
2019-02-11T05:55:11.411Z,2.80
2019-02-11T05:57:38.641Z,2.43
2019-02-11T06:00:08.027Z,2.90
2019-02-11T06:02:35.235Z,2.27
2019-02-11T06:05:02.483Z,4.27
2019-02-11T06:07:29.687Z,2.83
2019-02-11T06:09:56.930Z,2.57
2019-02-11T06:12:24.149Z,3.47
2019-02-11T06:14:51.376Z,3.33
2019-02-11T06:17:18.628Z,3.33
2019-02-11T06:19:45.840Z,3.40
2019-02-11T06:22:13.042Z,3.10
2019-02-11T06:24:40.286Z,3.80
2019-02-11T06:27:07.498Z,4.03
2019-02-11T06:29:34.756Z,3.20
2019-02-11T06:32:01.969Z,4.07
2019-02-11T06:34:29.175Z,3.17
2019-02-11T06:36:56.445Z,3.20
2019-02-11T06:39:23.698Z,3.50
2019-02-11T06:41:50.988Z,3.60
2019-02-11T06:44:18.241Z,3.00
2019-02-11T06:46:45.565Z,4.40
2019-02-11T06:49:12.749Z,3.87
2019-02-11T06:51:39.982Z,4.00
2019-02-11T06:54:07.242Z,4.03
2019-02-11T06:56:34.438Z,3.57
2019-02-11T06:59:01.645Z,4.03
2019-02-11T07:01:28.935Z,3.10
2019-02-11T07:03:56.179Z,3.50
2019-02-11T07:06:23.405Z,3.77
2019-02-11T07:08:50.616Z,3.67
2019-02-11T07:11:17.956Z,3.43
2019-02-11T07:13:45.176Z,4.20
2019-02-11T07:16:12.428Z,4.03
2019-02-11T07:18:39.633Z,3.97
2019-02-11T07:21:06.888Z,3.30
2019-02-11T07:23:34.153Z,3.33
2019-02-11T07:26:01.401Z,2.57
2019-02-11T07:28:28.669Z,3.17
2019-02-11T07:30:55.981Z,2.60
2019-02-11T07:33:23.201Z,2.73
2019-02-11T07:35:50.443Z,3.40
2019-02-11T07:38:17.705Z,3.33
2019-02-11T07:40:44.949Z,2.83
2019-02-11T07:43:31.859Z,3.53
2019-02-11T07:46:03.425Z,2.50
2019-02-11T07:48:30.625Z,3.07
2019-02-11T07:50:57.918Z,3.30
2019-02-11T07:53:25.116Z,2.90
2019-02-11T07:55:52.326Z,3.70
2019-02-11T07:58:19.627Z,3.00
2019-02-11T08:00:46.841Z,3.63
2019-02-11T08:03:14.062Z,3.30
2019-02-11T08:05:41.331Z,2.60
2019-02-11T08:08:08.549Z,2.83
2019-02-11T08:10:35.778Z,2.80
2019-02-11T08:13:03.021Z,2.83
2019-02-11T08:15:38.068Z,3.47
2019-02-11T08:17:59.365Z,2.27
2019-02-11T08:20:26.658Z,2.60
2019-02-11T08:22:53.888Z,2.60
2019-02-11T08:25:21.106Z,2.57
2019-02-11T08:27:48.380Z,3.00
2019-02-11T08:30:15.598Z,2.80
2019-02-11T08:32:42.809Z,2.87
2019-02-11T08:35:10.058Z,3.20
2019-02-11T08:37:37.275Z,3.20
2019-02-11T08:40:04.694Z,3.30
2019-02-11T08:42:31.949Z,3.33
2019-02-11T08:44:59.190Z,3.27
2019-02-11T08:47:26.430Z,3.40
2019-02-11T08:49:53.773Z,3.57
2019-02-11T08:52:20.977Z,3.63
2019-02-11T08:54:48.237Z,3.60
2019-02-11T08:57:15.460Z,3.40
2019-02-11T08:59:43.033Z,3.70
2019-02-11T09:02:10.385Z,3.83
2019-02-11T09:04:37.610Z,3.07
2019-02-11T09:07:04.952Z,4.13
2019-02-11T09:09:32.225Z,3.67
2019-02-11T09:11:59.459Z,3.40
2019-02-11T09:14:26.673Z,3.77
2019-02-11T09:16:53.926Z,3.97
2019-02-11T09:19:21.165Z,3.40
2019-02-11T09:21:48.379Z,4.27
2019-02-11T09:24:15.642Z,4.20
2019-02-11T09:26:42.877Z,3.37
2019-02-11T09:29:10.132Z,4.03
2019-02-11T09:31:37.359Z,4.47
2019-02-11T09:34:04.591Z,4.40
2019-02-11T09:36:31.977Z,3.83
2019-02-11T09:38:59.185Z,4.20
2019-02-11T09:41:26.449Z,3.67
2019-02-11T09:43:53.775Z,4.13
2019-02-11T09:46:21.212Z,3.63
2019-02-11T09:48:48.485Z,3.87
2019-02-11T09:51:15.767Z,2.90
2019-02-11T09:53:42.988Z,3.43
2019-02-11T09:56:10.374Z,3.10
2019-02-11T09:58:38.176Z,3.10
2019-02-11T10:01:05.506Z,3.00
2019-02-11T10:03:32.752Z,2.87
2019-02-11T10:05:59.970Z,3.13
2019-02-11T10:08:27.199Z,3.73
2019-02-11T10:10:54.482Z,3.33
2019-02-11T10:13:21.717Z,3.23
2019-02-11T10:15:48.931Z,3.10
2019-02-11T10:18:16.204Z,3.17
2019-02-11T10:20:43.417Z,3.50
2019-02-11T10:23:10.629Z,3.37
2019-02-11T10:25:37.870Z,3.60
2019-02-11T10:28:08.161Z,3.50
2019-02-11T10:30:35.392Z,4.90
2019-02-11T10:33:02.655Z,2.47
2019-02-11T10:35:29.878Z,3.27
2019-02-11T10:37:57.104Z,3.13
2019-02-11T10:40:24.443Z,2.97
2019-02-11T10:42:51.747Z,2.80
2019-02-11T10:45:19.112Z,3.33
2019-02-11T10:47:46.386Z,3.70
2019-02-11T10:50:14.736Z,3.57
2019-02-11T10:52:41.940Z,3.43
2019-02-11T10:55:10.993Z,3.60
2019-02-11T10:57:38.273Z,3.13
2019-02-11T11:00:07.755Z,3.30
2019-02-11T11:02:34.971Z,3.50
2019-02-11T11:05:02.249Z,3.70
2019-02-11T11:07:29.537Z,3.40
2019-02-11T11:09:56.790Z,3.93
2019-02-11T11:12:24.326Z,3.60
2019-02-11T11:14:51.627Z,3.70
2019-02-11T11:17:21.046Z,2.80
2019-02-11T11:19:48.271Z,3.97
2019-02-11T11:22:15.546Z,3.47
2019-02-11T11:24:42.764Z,4.97
2019-02-11T11:27:10.016Z,4.20
2019-02-11T11:29:37.284Z,4.27
2019-02-11T11:32:04.617Z,3.90
2019-02-11T11:34:31.828Z,5.10
2019-02-11T11:36:59.099Z,4.13
2019-02-11T11:39:26.491Z,3.30
2019-02-11T11:41:53.736Z,4.33
2019-02-11T11:44:20.977Z,4.33
2019-02-11T11:46:48.313Z,4.47
2019-02-11T11:49:15.540Z,4.67
2019-02-11T11:51:42.965Z,3.90
2019-02-11T11:54:10.226Z,4.93
2019-02-11T11:56:37.507Z,4.37
2019-02-11T11:59:04.744Z,3.60
2019-02-11T12:01:32.090Z,3.90
2019-02-11T12:03:59.364Z,4.13
2019-02-11T12:06:26.745Z,4.13
2019-02-11T12:08:54.009Z,4.20
2019-02-11T12:11:21.346Z,3.60
2019-02-11T12:13:48.752Z,3.57
2019-02-11T12:16:16.011Z,3.37
2019-02-11T12:18:43.310Z,5.00
2019-02-11T12:21:10.554Z,3.67
2019-02-11T12:23:37.763Z,4.43
2019-02-11T12:26:05.132Z,4.23
2019-02-11T12:28:32.438Z,4.87
2019-02-11T12:30:59.760Z,3.90
2019-02-11T12:33:26.973Z,4.33
2019-02-11T12:35:54.239Z,4.13
2019-02-11T12:38:21.526Z,4.53
2019-02-11T12:40:48.780Z,4.37
2019-02-11T12:43:16.039Z,4.00
2019-02-11T12:45:43.418Z,4.20
2019-02-11T12:48:10.804Z,3.73
2019-02-11T12:50:38.130Z,4.13
2019-02-11T12:53:05.417Z,4.27
2019-02-11T12:55:32.702Z,4.37
2019-02-11T12:57:59.918Z,4.57
2019-02-11T13:00:27.203Z,5.10
2019-02-11T13:02:54.435Z,4.37
2019-02-11T13:05:26.713Z,4.57
2019-02-11T13:07:50.960Z,3.93
2019-02-11T13:10:19.574Z,4.30
2019-02-11T13:12:46.966Z,4.10
2019-02-11T13:15:33.942Z,3.73
2019-02-11T13:17:43.884Z,4.83
2019-02-11T13:20:12.310Z,3.40
2019-02-11T13:22:39.710Z,3.10
2019-02-11T13:25:09.427Z,3.57
2019-02-11T13:27:36.820Z,4.57
2019-02-11T13:30:05.380Z,4.17
2019-02-11T13:32:32.657Z,3.60
2019-02-11T13:34:59.899Z,3.63
2019-02-11T13:37:27.150Z,3.80
2019-02-11T13:39:54.414Z,4.00
2019-02-11T13:42:22.669Z,3.67
2019-02-11T13:44:50.021Z,3.60
2019-02-11T13:47:17.361Z,3.57
2019-02-11T13:49:46.506Z,3.90
2019-02-11T13:52:13.800Z,3.83
2019-02-11T13:54:41.354Z,3.83
2019-02-11T13:57:08.579Z,3.90
2019-02-11T13:59:35.878Z,3.00
2019-02-11T14:02:03.231Z,3.33
2019-02-11T14:04:30.459Z,3.37
2019-02-11T14:06:57.828Z,3.80
2019-02-11T14:09:25.053Z,3.97
2019-02-11T14:11:52.318Z,3.53
2019-02-11T14:14:27.110Z,3.20
2019-02-11T14:16:55.080Z,4.03
2019-02-11T14:19:22.330Z,3.80
2019-02-11T14:21:49.591Z,3.53
2019-02-11T14:24:16.843Z,3.70
2019-02-11T14:26:44.077Z,4.27
2019-02-11T14:29:11.391Z,3.30
2019-02-11T14:31:38.622Z,4.03
2019-02-11T14:34:10.048Z,4.00
2019-02-11T14:36:35.049Z,3.63
2019-02-11T14:39:04.203Z,3.03
2019-02-11T14:41:31.491Z,3.60
2019-02-11T14:43:58.704Z,3.73
2019-02-11T14:46:25.971Z,3.07
2019-02-11T14:48:53.346Z,2.27
2019-02-11T14:51:20.613Z,2.40
2019-02-11T14:53:47.905Z,2.43
2019-02-11T14:56:15.218Z,2.87
2019-02-11T14:58:42.453Z,3.10
2019-02-11T15:01:09.665Z,3.50
2019-02-11T15:03:36.935Z,2.43
2019-02-11T15:06:04.173Z,3.23
2019-02-11T15:08:31.407Z,3.50
2019-02-11T15:10:58.715Z,3.30
2019-02-11T15:13:25.930Z,3.50
2019-02-11T15:15:53.156Z,4.00
2019-02-11T15:18:20.413Z,5.33
2019-02-11T15:20:47.617Z,4.10
2019-02-11T15:23:14.826Z,4.07
2019-02-11T15:25:42.071Z,4.00
2019-02-11T15:28:09.304Z,3.20
2019-02-11T15:30:36.680Z,3.80
2019-02-11T15:33:03.893Z,3.07
2019-02-11T15:35:31.144Z,3.07
2019-02-11T15:37:58.428Z,3.33
2019-02-11T15:40:25.673Z,3.20
2019-02-11T15:42:52.900Z,3.10
2019-02-11T15:45:20.170Z,3.40
2019-02-11T15:47:47.477Z,3.37
2019-02-11T15:50:15.312Z,2.90
2019-02-11T15:52:42.630Z,2.70
2019-02-11T15:55:11.933Z,2.83
2019-02-11T15:57:39.174Z,3.00
2019-02-11T16:00:08.116Z,2.70
2019-02-11T16:02:35.322Z,2.00
2019-02-11T16:05:02.991Z,2.70
2019-02-11T16:07:30.289Z,2.17
2019-02-11T16:09:57.534Z,2.40
2019-02-11T16:12:24.758Z,2.33
2019-02-11T16:14:52.008Z,2.43
2019-02-11T16:17:21.875Z,1.80
2019-02-11T16:19:49.102Z,2.27
2019-02-11T16:22:16.370Z,2.47
2019-02-11T16:24:43.581Z,2.40
2019-02-11T16:27:10.802Z,2.53
2019-02-11T16:29:38.063Z,1.77
2019-02-11T16:32:05.281Z,2.07
2019-02-11T16:34:32.520Z,1.77
2019-02-11T16:36:59.784Z,2.90
2019-02-11T16:39:27.050Z,2.30
2019-02-11T16:41:54.297Z,2.60
2019-02-11T16:44:21.554Z,2.40
2019-02-11T16:46:48.796Z,2.93
2019-02-11T16:49:16.105Z,2.00
2019-02-11T16:51:43.432Z,2.80
2019-02-11T16:54:10.666Z,2.40
2019-02-11T16:56:37.914Z,2.77
2019-02-11T16:59:05.161Z,3.50
2019-02-11T17:01:32.395Z,3.47
2019-02-11T17:03:59.667Z,3.20
2019-02-11T17:06:26.948Z,2.80
2019-02-11T17:08:54.169Z,2.57
2019-02-11T17:11:21.401Z,3.30
2019-02-11T17:13:48.675Z,2.90
2019-02-11T17:16:15.881Z,2.60
2019-02-11T17:18:43.100Z,3.10
2019-02-11T17:21:10.370Z,2.50
2019-02-11T17:23:37.611Z,2.83
2019-02-11T17:26:04.830Z,2.00
2019-02-11T17:28:32.082Z,1.60
2019-02-11T17:30:59.476Z,1.90
2019-02-11T17:33:26.706Z,1.60
2019-02-11T17:35:53.998Z,1.63
2019-02-11T17:38:21.201Z,1.90
2019-02-11T17:40:48.460Z,1.67
2019-02-11T17:43:15.670Z,3.47
2019-02-11T17:45:43.019Z,2.10
2019-02-11T17:48:10.279Z,2.67
2019-02-11T17:50:37.576Z,2.27
2019-02-11T17:53:05.502Z,2.30
2019-02-11T17:55:32.782Z,2.40
2019-02-11T17:58:00.004Z,2.20
2019-02-11T18:00:31.271Z,1.77
2019-02-11T18:02:58.550Z,2.30
2019-02-11T18:05:25.769Z,2.40
2019-02-11T18:07:52.977Z,2.73
2019-02-11T18:10:20.241Z,2.87
2019-02-11T18:12:47.465Z,1.83
2019-02-11T18:15:14.737Z,3.83
2019-02-11T18:17:41.970Z,1.80
2019-02-11T18:20:09.324Z,2.07
2019-02-11T18:22:36.544Z,1.50
2019-02-11T18:25:04.117Z,1.77
2019-02-11T18:27:31.373Z,2.23
2019-02-11T18:29:58.593Z,1.77
2019-02-11T18:32:25.793Z,2.20
2019-02-11T18:34:53.045Z,1.93
2019-02-11T18:37:20.279Z,2.23
2019-02-11T18:39:47.511Z,3.00
2019-02-11T18:42:14.772Z,2.17
2019-02-11T18:44:42.014Z,2.70
2019-02-11T18:47:09.258Z,3.23
2019-02-11T18:49:36.549Z,3.20
2019-02-11T18:52:03.939Z,2.73
2019-02-11T18:54:31.189Z,2.53
2019-02-11T18:56:58.404Z,2.30
2019-02-11T18:59:25.658Z,3.10
2019-02-11T19:01:52.882Z,3.47
2019-02-11T19:04:20.122Z,2.60
2019-02-11T19:06:47.413Z,4.07
2019-02-11T19:09:16.080Z,3.60
2019-02-11T19:11:43.297Z,2.33
2019-02-11T19:14:10.588Z,2.80
2019-02-11T19:16:37.842Z,2.57
2019-02-11T19:19:05.053Z,2.73
2019-02-11T19:21:32.339Z,2.90
2019-02-11T19:23:59.590Z,3.13
2019-02-11T19:26:26.793Z,2.27
2019-02-11T19:28:54.010Z,2.47
2019-02-11T19:31:21.279Z,2.40
2019-02-11T19:33:48.493Z,2.57
2019-02-11T19:36:15.707Z,2.53
2019-02-11T19:38:42.965Z,2.13
2019-02-11T19:41:10.337Z,2.70
2019-02-11T19:43:37.899Z,2.57
2019-02-11T19:46:05.557Z,2.20
2019-02-11T19:48:33.242Z,2.77
2019-02-11T19:51:00.856Z,2.60
2019-02-11T19:53:28.607Z,3.03
2019-02-11T19:55:56.342Z,2.60
2019-02-11T19:58:23.919Z,2.93
2019-02-11T20:00:51.452Z,2.70
2019-02-11T20:03:19.018Z,2.30
2019-02-11T20:05:46.559Z,2.23
2019-02-11T20:08:14.102Z,2.67
2019-02-11T20:10:41.825Z,2.53
2019-02-11T20:13:09.370Z,2.20
2019-02-11T20:15:37.019Z,2.10
2019-02-11T20:18:04.748Z,2.17
2019-02-11T20:20:32.385Z,2.33
2019-02-11T20:22:59.921Z,2.20
2019-02-11T20:25:27.600Z,2.37
2019-02-11T20:27:55.254Z,2.50
2019-02-11T20:30:24.148Z,2.47
2019-02-11T20:32:51.823Z,2.90
2019-02-11T20:35:19.576Z,2.47
2019-02-11T20:37:47.113Z,2.40
2019-02-11T20:40:16.579Z,2.37
2019-02-11T20:42:44.131Z,2.67
2019-02-11T20:45:14.730Z,2.50
2019-02-11T20:47:42.326Z,2.73
2019-02-11T20:50:12.117Z,3.17
2019-02-11T20:52:39.552Z,2.00
2019-02-11T20:55:08.740Z,2.27
2019-02-11T20:57:36.302Z,1.90
2019-02-11T21:00:04.789Z,1.97
2019-02-11T21:02:32.366Z,2.07
2019-02-11T21:04:59.904Z,2.00
2019-02-11T21:07:27.442Z,1.87
2019-02-11T21:09:55.072Z,2.60
2019-02-11T21:12:22.724Z,1.37
2019-02-11T21:14:50.255Z,1.93
2019-02-11T21:17:17.978Z,1.50
2019-02-11T21:19:45.523Z,1.60
2019-02-11T21:22:13.147Z,2.10
2019-02-11T21:24:40.707Z,1.80
2019-02-11T21:27:08.256Z,2.03
2019-02-11T21:29:35.825Z,2.30
2019-02-11T21:32:06.449Z,1.83
2019-02-11T21:34:33.987Z,1.80
2019-02-11T21:37:01.603Z,2.00
2019-02-11T21:39:29.137Z,2.20
2019-02-11T21:41:56.682Z,2.30
2019-02-11T21:44:24.313Z,2.00
2019-02-11T21:46:51.554Z,2.40
2019-02-11T21:49:19.292Z,2.30
2019-02-11T21:51:46.553Z,2.50
2019-02-11T21:54:13.762Z,2.50
2019-02-11T21:56:41.037Z,1.77
2019-02-11T21:59:08.284Z,1.77
2019-02-11T22:01:35.493Z,1.33
2019-02-11T22:04:02.716Z,1.40
2019-02-11T22:06:30.000Z,1.50
2019-02-11T22:08:57.210Z,1.60
2019-02-11T22:11:24.426Z,1.60
2019-02-11T22:13:51.677Z,1.30
2019-02-11T22:16:18.919Z,2.00
2019-02-11T22:18:46.150Z,1.50
2019-02-11T22:21:13.420Z,1.93
2019-02-11T22:23:40.627Z,1.50
2019-02-11T22:26:07.836Z,2.03
2019-02-11T22:28:35.085Z,2.03
2019-02-11T22:31:02.307Z,1.63
2019-02-11T22:33:29.529Z,2.20
2019-02-11T22:35:56.813Z,1.87
2019-02-11T22:38:24.024Z,1.60
2019-02-11T22:40:51.235Z,2.00
2019-02-11T22:43:18.534Z,1.90
2019-02-11T22:45:45.752Z,2.10
2019-02-11T22:48:12.979Z,1.80
2019-02-11T22:50:43.215Z,1.50
2019-02-11T22:53:09.386Z,1.30
2019-02-11T22:55:36.658Z,1.50
2019-02-11T22:58:03.914Z,1.03
2019-02-11T23:00:48.603Z,0.87
2019-02-11T23:03:16.314Z,0.97
2019-02-11T23:05:43.638Z,1.27
2019-02-11T23:08:11.147Z,0.90
2019-02-11T23:10:38.393Z,0.90
2019-02-11T23:13:05.592Z,0.87
2019-02-11T23:15:32.810Z,1.10
2019-02-11T23:18:00.089Z,1.30
2019-02-11T23:20:27.655Z,1.10
2019-02-11T23:22:54.862Z,1.30
2019-02-11T23:25:22.173Z,1.30
2019-02-11T23:27:49.392Z,1.83
2019-02-11T23:30:16.594Z,1.97
2019-02-11T23:32:43.853Z,2.03
2019-02-11T23:35:11.070Z,1.90
2019-02-11T23:37:38.280Z,1.77
2019-02-11T23:40:05.676Z,2.13
2019-02-11T23:42:32.928Z,1.77
2019-02-11T23:45:00.280Z,2.00
2019-02-11T23:47:27.544Z,1.97
2019-02-11T23:49:54.845Z,2.67
2019-02-11T23:52:22.078Z,2.37
2019-02-11T23:54:49.360Z,2.70
2019-02-11T23:57:16.567Z,2.83
2019-02-11T23:59:43.780Z,1.87
